sensor_id;sensor_type;location;lat;lon;timestamp;P1;durP1;ratioP1;P2;durP2;ratioP2
37273;SDS011;23161;51.250;5.554;2022-12-18T00:01:27;55.20;;;37.00;;
37273;SDS011;23161;51.250;5.554;2022-12-18T00:03:58;49.63;;;37.20;;
37273;SDS011;23161;51.250;5.554;2022-12-18T00:06:25;51.80;;;31.40;;
37273;SDS011;23161;51.250;5.554;2022-12-18T00:08:52;53.20;;;33.63;;
37273;SDS011;23161;51.250;5.554;2022-12-18T00:11:21;40.90;;;35.03;;
37273;SDS011;23161;51.250;5.554;2022-12-18T00:13:49;46.23;;;35.37;;
37273;SDS011;23161;51.250;5.554;2022-12-18T00:16:16;41.57;;;31.97;;
37273;SDS011;23161;51.250;5.554;2022-12-18T00:18:46;45.03;;;35.30;;
37273;SDS011;23161;51.250;5.554;2022-12-18T00:21:13;43.97;;;30.67;;
37273;SDS011;23161;51.250;5.554;2022-12-18T00:23:41;49.23;;;32.50;;
37273;SDS011;23161;51.250;5.554;2022-12-18T00:26:10;41.93;;;33.47;;
37273;SDS011;23161;51.250;5.554;2022-12-18T00:28:39;44.80;;;34.80;;
37273;SDS011;23161;51.250;5.554;2022-12-18T00:31:05;37.33;;;29.13;;
37273;SDS011;23161;51.250;5.554;2022-12-18T00:33:33;48.33;;;34.50;;
37273;SDS011;23161;51.250;5.554;2022-12-18T00:36:07;39.80;;;31.47;;
37273;SDS011;23161;51.250;5.554;2022-12-18T00:38:41;44.53;;;32.93;;
37273;SDS011;23161;51.250;5.554;2022-12-18T00:41:08;40.03;;;31.27;;
37273;SDS011;23161;51.250;5.554;2022-12-18T00:43:35;40.73;;;30.90;;
37273;SDS011;23161;51.250;5.554;2022-12-18T00:46:02;43.70;;;31.60;;
37273;SDS011;23161;51.250;5.554;2022-12-18T00:48:28;42.70;;;30.27;;
37273;SDS011;23161;51.250;5.554;2022-12-18T00:50:54;40.97;;;29.33;;
37273;SDS011;23161;51.250;5.554;2022-12-18T00:53:20;43.67;;;31.63;;
37273;SDS011;23161;51.250;5.554;2022-12-18T00:55:46;36.17;;;31.00;;
37273;SDS011;23161;51.250;5.554;2022-12-18T00:58:13;33.13;;;29.17;;
37273;SDS011;23161;51.250;5.554;2022-12-18T01:00:41;38.87;;;28.40;;
37273;SDS011;23161;51.250;5.554;2022-12-18T01:05:39;37.83;;;27.93;;
37273;SDS011;23161;51.250;5.554;2022-12-18T01:08:05;40.70;;;28.87;;
37273;SDS011;23161;51.250;5.554;2022-12-18T01:10:31;43.23;;;30.77;;
37273;SDS011;23161;51.250;5.554;2022-12-18T01:12:57;41.47;;;30.90;;
37273;SDS011;23161;51.250;5.554;2022-12-18T01:15:23;48.33;;;29.67;;
37273;SDS011;23161;51.250;5.554;2022-12-18T01:17:49;39.23;;;28.97;;
37273;SDS011;23161;51.250;5.554;2022-12-18T01:20:17;28.10;;;24.67;;
37273;SDS011;23161;51.250;5.554;2022-12-18T01:22:43;34.50;;;29.10;;
37273;SDS011;23161;51.250;5.554;2022-12-18T01:25:09;43.57;;;30.50;;
37273;SDS011;23161;51.250;5.554;2022-12-18T01:27:35;34.03;;;26.23;;
37273;SDS011;23161;51.250;5.554;2022-12-18T01:30:02;37.20;;;28.90;;
37273;SDS011;23161;51.250;5.554;2022-12-18T01:32:29;35.50;;;29.33;;
37273;SDS011;23161;51.250;5.554;2022-12-18T01:34:55;44.90;;;32.40;;
37273;SDS011;23161;51.250;5.554;2022-12-18T01:37:21;37.77;;;29.23;;
37273;SDS011;23161;51.250;5.554;2022-12-18T01:39:48;44.17;;;29.87;;
37273;SDS011;23161;51.250;5.554;2022-12-18T01:42:15;31.77;;;26.00;;
37273;SDS011;23161;51.250;5.554;2022-12-18T01:49:52;36.77;;;30.20;;
37273;SDS011;23161;51.250;5.554;2022-12-18T01:52:18;37.80;;;28.27;;
37273;SDS011;23161;51.250;5.554;2022-12-18T01:54:46;40.37;;;30.07;;
37273;SDS011;23161;51.250;5.554;2022-12-18T01:57:14;32.97;;;29.60;;
37273;SDS011;23161;51.250;5.554;2022-12-18T01:59:40;29.23;;;24.63;;
37273;SDS011;23161;51.250;5.554;2022-12-18T02:02:08;38.73;;;25.70;;
37273;SDS011;23161;51.250;5.554;2022-12-18T02:04:34;31.57;;;27.07;;
37273;SDS011;23161;51.250;5.554;2022-12-18T02:07:03;39.33;;;28.60;;
37273;SDS011;23161;51.250;5.554;2022-12-18T02:09:35;34.83;;;24.53;;
37273;SDS011;23161;51.250;5.554;2022-12-18T02:12:16;27.33;;;24.47;;
37273;SDS011;23161;51.250;5.554;2022-12-18T02:15:09;27.73;;;23.80;;
37273;SDS011;23161;51.250;5.554;2022-12-18T02:17:53;34.40;;;25.57;;
37273;SDS011;23161;51.250;5.554;2022-12-18T02:20:36;30.13;;;24.43;;
37273;SDS011;23161;51.250;5.554;2022-12-18T02:23:41;27.88;;;24.00;;
37273;SDS011;23161;51.250;5.554;2022-12-18T02:28:44;30.97;;;25.00;;
37273;SDS011;23161;51.250;5.554;2022-12-18T02:31:24;30.17;;;24.73;;
37273;SDS011;23161;51.250;5.554;2022-12-18T02:33:53;30.10;;;25.07;;
37273;SDS011;23161;51.250;5.554;2022-12-18T02:36:21;25.10;;;21.88;;
37273;SDS011;23161;51.250;5.554;2022-12-18T02:38:48;26.27;;;23.07;;
37273;SDS011;23161;51.250;5.554;2022-12-18T02:41:17;27.70;;;24.83;;
37273;SDS011;23161;51.250;5.554;2022-12-18T02:43:47;29.67;;;22.13;;
37273;SDS011;23161;51.250;5.554;2022-12-18T02:57:14;26.67;;;21.23;;
37273;SDS011;23161;51.250;5.554;2022-12-18T03:02:25;27.47;;;24.23;;
37273;SDS011;23161;51.250;5.554;2022-12-18T03:05:07;35.67;;;24.83;;
37273;SDS011;23161;51.250;5.554;2022-12-18T03:07:36;31.70;;;24.60;;
37273;SDS011;23161;51.250;5.554;2022-12-18T03:10:09;33.20;;;23.73;;
37273;SDS011;23161;51.250;5.554;2022-12-18T03:12:40;32.30;;;24.93;;
37273;SDS011;23161;51.250;5.554;2022-12-18T03:17:50;30.17;;;22.87;;
37273;SDS011;23161;51.250;5.554;2022-12-18T03:20:24;32.70;;;22.97;;
37273;SDS011;23161;51.250;5.554;2022-12-18T03:22:53;27.70;;;23.00;;
37273;SDS011;23161;51.250;5.554;2022-12-18T03:25:25;27.77;;;21.73;;
37273;SDS011;23161;51.250;5.554;2022-12-18T03:27:55;25.33;;;20.93;;
37273;SDS011;23161;51.250;5.554;2022-12-18T03:30:23;28.07;;;22.07;;
37273;SDS011;23161;51.250;5.554;2022-12-18T03:32:53;28.93;;;21.60;;
37273;SDS011;23161;51.250;5.554;2022-12-18T03:35:32;28.30;;;20.98;;
37273;SDS011;23161;51.250;5.554;2022-12-18T03:38:03;23.47;;;20.97;;
37273;SDS011;23161;51.250;5.554;2022-12-18T03:40:35;27.80;;;23.00;;
37273;SDS011;23161;51.250;5.554;2022-12-18T03:45:43;25.77;;;19.87;;
37273;SDS011;23161;51.250;5.554;2022-12-18T03:51:04;31.50;;;22.30;;
37273;SDS011;23161;51.250;5.554;2022-12-18T03:56:06;25.87;;;19.17;;
37273;SDS011;23161;51.250;5.554;2022-12-18T03:58:37;29.70;;;21.40;;
37273;SDS011;23161;51.250;5.554;2022-12-18T04:01:15;34.73;;;21.63;;
37273;SDS011;23161;51.250;5.554;2022-12-18T04:03:43;26.93;;;20.73;;
37273;SDS011;23161;51.250;5.554;2022-12-18T04:06:12;25.20;;;20.48;;
37273;SDS011;23161;51.250;5.554;2022-12-18T04:08:41;28.83;;;22.15;;
37273;SDS011;23161;51.250;5.554;2022-12-18T04:11:10;23.75;;;21.20;;
37273;SDS011;23161;51.250;5.554;2022-12-18T04:13:37;27.03;;;20.30;;
37273;SDS011;23161;51.250;5.554;2022-12-18T04:16:07;27.57;;;18.87;;
37273;SDS011;23161;51.250;5.554;2022-12-18T04:18:38;24.07;;;20.97;;
37273;SDS011;23161;51.250;5.554;2022-12-18T04:21:05;25.73;;;19.53;;
37273;SDS011;23161;51.250;5.554;2022-12-18T04:23:32;24.60;;;20.27;;
37273;SDS011;23161;51.250;5.554;2022-12-18T04:25:58;26.33;;;20.80;;
37273;SDS011;23161;51.250;5.554;2022-12-18T04:28:52;24.30;;;20.33;;
37273;SDS011;23161;51.250;5.554;2022-12-18T04:31:18;30.47;;;22.23;;
37273;SDS011;23161;51.250;5.554;2022-12-18T04:33:44;26.57;;;22.10;;
37273;SDS011;23161;51.250;5.554;2022-12-18T04:36:10;35.57;;;21.37;;
37273;SDS011;23161;51.250;5.554;2022-12-18T04:38:38;33.00;;;22.47;;
37273;SDS011;23161;51.250;5.554;2022-12-18T04:41:07;25.40;;;20.85;;
37273;SDS011;23161;51.250;5.554;2022-12-18T04:43:34;26.97;;;20.97;;
37273;SDS011;23161;51.250;5.554;2022-12-18T04:46:06;27.13;;;21.40;;
37273;SDS011;23161;51.250;5.554;2022-12-18T04:48:33;24.03;;;21.63;;
37273;SDS011;23161;51.250;5.554;2022-12-18T04:51:01;22.83;;;20.03;;
37273;SDS011;23161;51.250;5.554;2022-12-18T04:53:27;24.70;;;21.37;;
37273;SDS011;23161;51.250;5.554;2022-12-18T04:56:06;24.30;;;19.30;;
37273;SDS011;23161;51.250;5.554;2022-12-18T04:58:34;23.30;;;18.37;;
37273;SDS011;23161;51.250;5.554;2022-12-18T05:01:00;25.63;;;20.73;;
37273;SDS011;23161;51.250;5.554;2022-12-18T05:03:28;26.03;;;20.70;;
37273;SDS011;23161;51.250;5.554;2022-12-18T05:05:55;27.17;;;20.40;;
37273;SDS011;23161;51.250;5.554;2022-12-18T05:08:20;27.00;;;22.73;;
37273;SDS011;23161;51.250;5.554;2022-12-18T05:10:46;26.63;;;19.57;;
37273;SDS011;23161;51.250;5.554;2022-12-18T05:13:12;25.37;;;19.77;;
37273;SDS011;23161;51.250;5.554;2022-12-18T05:15:38;21.50;;;18.97;;
37273;SDS011;23161;51.250;5.554;2022-12-18T05:18:04;21.97;;;19.83;;
37273;SDS011;23161;51.250;5.554;2022-12-18T05:20:30;19.30;;;17.30;;
37273;SDS011;23161;51.250;5.554;2022-12-18T05:22:56;22.37;;;18.40;;
37273;SDS011;23161;51.250;5.554;2022-12-18T05:25:22;26.77;;;22.17;;
37273;SDS011;23161;51.250;5.554;2022-12-18T05:27:49;29.07;;;20.30;;
37273;SDS011;23161;51.250;5.554;2022-12-18T05:30:15;27.73;;;21.10;;
37273;SDS011;23161;51.250;5.554;2022-12-18T05:32:41;22.90;;;18.33;;
37273;SDS011;23161;51.250;5.554;2022-12-18T05:35:07;22.50;;;18.30;;
37273;SDS011;23161;51.250;5.554;2022-12-18T05:37:34;19.17;;;17.33;;
37273;SDS011;23161;51.250;5.554;2022-12-18T05:40:01;25.83;;;20.37;;
37273;SDS011;23161;51.250;5.554;2022-12-18T05:42:29;20.73;;;18.03;;
37273;SDS011;23161;51.250;5.554;2022-12-18T05:44:55;24.60;;;18.07;;
37273;SDS011;23161;51.250;5.554;2022-12-18T05:47:21;29.97;;;21.93;;
37273;SDS011;23161;51.250;5.554;2022-12-18T05:49:47;25.57;;;19.77;;
37273;SDS011;23161;51.250;5.554;2022-12-18T05:52:13;20.60;;;18.40;;
37273;SDS011;23161;51.250;5.554;2022-12-18T05:54:38;23.37;;;20.83;;
37273;SDS011;23161;51.250;5.554;2022-12-18T05:57:04;25.30;;;21.40;;
37273;SDS011;23161;51.250;5.554;2022-12-18T05:59:30;25.97;;;21.70;;
37273;SDS011;23161;51.250;5.554;2022-12-18T06:01:56;29.77;;;22.00;;
37273;SDS011;23161;51.250;5.554;2022-12-18T06:04:22;27.23;;;20.03;;
37273;SDS011;23161;51.250;5.554;2022-12-18T06:06:48;27.60;;;21.20;;
37273;SDS011;23161;51.250;5.554;2022-12-18T06:09:14;31.00;;;23.30;;
37273;SDS011;23161;51.250;5.554;2022-12-18T06:11:40;24.83;;;20.47;;
37273;SDS011;23161;51.250;5.554;2022-12-18T06:14:06;27.27;;;20.60;;
37273;SDS011;23161;51.250;5.554;2022-12-18T06:16:32;22.13;;;19.63;;
37273;SDS011;23161;51.250;5.554;2022-12-18T06:18:58;24.47;;;20.37;;
37273;SDS011;23161;51.250;5.554;2022-12-18T06:21:25;21.57;;;19.40;;
37273;SDS011;23161;51.250;5.554;2022-12-18T06:23:52;22.53;;;19.23;;
37273;SDS011;23161;51.250;5.554;2022-12-18T06:26:18;28.30;;;19.73;;
37273;SDS011;23161;51.250;5.554;2022-12-18T06:28:44;24.70;;;20.67;;
37273;SDS011;23161;51.250;5.554;2022-12-18T06:31:10;24.63;;;19.17;;
37273;SDS011;23161;51.250;5.554;2022-12-18T06:33:37;21.83;;;19.47;;
37273;SDS011;23161;51.250;5.554;2022-12-18T06:38:32;29.13;;;19.77;;
37273;SDS011;23161;51.250;5.554;2022-12-18T06:40:59;23.07;;;18.03;;
37273;SDS011;23161;51.250;5.554;2022-12-18T06:43:27;23.27;;;18.13;;
37273;SDS011;23161;51.250;5.554;2022-12-18T06:46:00;24.40;;;20.50;;
37273;SDS011;23161;51.250;5.554;2022-12-18T06:48:26;26.13;;;20.37;;
37273;SDS011;23161;51.250;5.554;2022-12-18T06:50:52;31.90;;;23.50;;
37273;SDS011;23161;51.250;5.554;2022-12-18T06:53:18;27.80;;;21.80;;
37273;SDS011;23161;51.250;5.554;2022-12-18T06:55:44;24.60;;;20.50;;
37273;SDS011;23161;51.250;5.554;2022-12-18T06:58:09;27.60;;;20.77;;
37273;SDS011;23161;51.250;5.554;2022-12-18T07:00:35;27.00;;;21.37;;
37273;SDS011;23161;51.250;5.554;2022-12-18T07:03:01;26.17;;;21.17;;
37273;SDS011;23161;51.250;5.554;2022-12-18T07:05:27;24.03;;;21.30;;
37273;SDS011;23161;51.250;5.554;2022-12-18T07:07:53;23.67;;;21.23;;
37273;SDS011;23161;51.250;5.554;2022-12-18T07:10:19;23.80;;;19.37;;
37273;SDS011;23161;51.250;5.554;2022-12-18T07:12:45;29.80;;;21.13;;
37273;SDS011;23161;51.250;5.554;2022-12-18T07:15:12;30.60;;;21.80;;
37273;SDS011;23161;51.250;5.554;2022-12-18T07:17:37;23.70;;;19.40;;
37273;SDS011;23161;51.250;5.554;2022-12-18T07:20:03;33.27;;;23.33;;
37273;SDS011;23161;51.250;5.554;2022-12-18T07:22:29;23.47;;;20.83;;
37273;SDS011;23161;51.250;5.554;2022-12-18T07:24:55;23.13;;;20.57;;
37273;SDS011;23161;51.250;5.554;2022-12-18T07:27:21;23.00;;;20.50;;
37273;SDS011;23161;51.250;5.554;2022-12-18T07:29:47;23.10;;;20.90;;
37273;SDS011;23161;51.250;5.554;2022-12-18T07:32:13;28.33;;;22.90;;
37273;SDS011;23161;51.250;5.554;2022-12-18T07:34:39;26.60;;;24.03;;
37273;SDS011;23161;51.250;5.554;2022-12-18T07:37:05;26.77;;;21.47;;
37273;SDS011;23161;51.250;5.554;2022-12-18T07:39:31;33.90;;;22.80;;
37273;SDS011;23161;51.250;5.554;2022-12-18T07:41:57;32.27;;;23.57;;
37273;SDS011;23161;51.250;5.554;2022-12-18T07:44:42;28.73;;;23.07;;
37273;SDS011;23161;51.250;5.554;2022-12-18T07:47:08;25.47;;;22.07;;
37273;SDS011;23161;51.250;5.554;2022-12-18T07:49:34;26.37;;;20.50;;
37273;SDS011;23161;51.250;5.554;2022-12-18T07:51:59;30.27;;;23.37;;
37273;SDS011;23161;51.250;5.554;2022-12-18T07:54:26;30.87;;;24.20;;
37273;SDS011;23161;51.250;5.554;2022-12-18T07:56:52;29.10;;;24.23;;
37273;SDS011;23161;51.250;5.554;2022-12-18T07:59:18;32.40;;;25.57;;
37273;SDS011;23161;51.250;5.554;2022-12-18T08:01:44;28.57;;;23.67;;
37273;SDS011;23161;51.250;5.554;2022-12-18T08:04:10;24.93;;;22.37;;
37273;SDS011;23161;51.250;5.554;2022-12-18T08:06:36;33.50;;;25.27;;
37273;SDS011;23161;51.250;5.554;2022-12-18T08:09:02;28.83;;;24.85;;
37273;SDS011;23161;51.250;5.554;2022-12-18T08:11:28;30.95;;;24.10;;
37273;SDS011;23161;51.250;5.554;2022-12-18T08:13:54;25.75;;;22.63;;
37273;SDS011;23161;51.250;5.554;2022-12-18T08:16:20;30.13;;;24.55;;
37273;SDS011;23161;51.250;5.554;2022-12-18T08:18:48;28.60;;;23.93;;
37273;SDS011;23161;51.250;5.554;2022-12-18T08:21:15;29.23;;;25.63;;
37273;SDS011;23161;51.250;5.554;2022-12-18T08:23:43;32.33;;;25.45;;
37273;SDS011;23161;51.250;5.554;2022-12-18T08:26:10;28.95;;;22.10;;
37273;SDS011;23161;51.250;5.554;2022-12-18T08:28:36;27.73;;;23.80;;
37273;SDS011;23161;51.250;5.554;2022-12-18T08:31:02;33.67;;;26.10;;
37273;SDS011;23161;51.250;5.554;2022-12-18T08:33:28;28.98;;;24.38;;
37273;SDS011;23161;51.250;5.554;2022-12-18T08:35:54;29.90;;;22.08;;
37273;SDS011;23161;51.250;5.554;2022-12-18T08:38:20;27.02;;;22.92;;
37273;SDS011;23161;51.250;5.554;2022-12-18T08:40:46;36.28;;;24.60;;
37273;SDS011;23161;51.250;5.554;2022-12-18T08:43:12;34.85;;;25.08;;
37273;SDS011;23161;51.250;5.554;2022-12-18T08:45:56;30.10;;;24.52;;
37273;SDS011;23161;51.250;5.554;2022-12-18T08:48:22;25.35;;;22.75;;
37273;SDS011;23161;51.250;5.554;2022-12-18T08:50:55;28.83;;;21.67;;
37273;SDS011;23161;51.250;5.554;2022-12-18T08:53:21;20.77;;;18.73;;
37273;SDS011;23161;51.250;5.554;2022-12-18T08:55:47;29.50;;;21.98;;
37273;SDS011;23161;51.250;5.554;2022-12-18T08:58:13;24.08;;;21.45;;
37273;SDS011;23161;51.250;5.554;2022-12-18T09:00:42;25.40;;;21.83;;
37273;SDS011;23161;51.250;5.554;2022-12-18T09:03:15;27.67;;;20.92;;
37273;SDS011;23161;51.250;5.554;2022-12-18T09:06:15;22.02;;;18.65;;
37273;SDS011;23161;51.250;5.554;2022-12-18T09:08:43;23.23;;;18.77;;
37273;SDS011;23161;51.250;5.554;2022-12-18T09:11:11;21.33;;;18.95;;
37273;SDS011;23161;51.250;5.554;2022-12-18T09:13:39;22.27;;;19.40;;
37273;SDS011;23161;51.250;5.554;2022-12-18T09:16:05;19.55;;;17.55;;
37273;SDS011;23161;51.250;5.554;2022-12-18T09:18:31;28.60;;;19.20;;
37273;SDS011;23161;51.250;5.554;2022-12-18T09:20:57;23.75;;;19.38;;
37273;SDS011;23161;51.250;5.554;2022-12-18T09:23:23;20.90;;;18.52;;
37273;SDS011;23161;51.250;5.554;2022-12-18T09:25:49;21.52;;;19.23;;
37273;SDS011;23161;51.250;5.554;2022-12-18T09:28:15;27.55;;;17.73;;
37273;SDS011;23161;51.250;5.554;2022-12-18T09:30:44;25.00;;;19.88;;
37273;SDS011;23161;51.250;5.554;2022-12-18T09:33:12;24.75;;;21.08;;
37273;SDS011;23161;51.250;5.554;2022-12-18T09:35:39;23.98;;;19.88;;
37273;SDS011;23161;51.250;5.554;2022-12-18T09:38:06;23.60;;;19.23;;
37273;SDS011;23161;51.250;5.554;2022-12-18T09:40:39;25.65;;;19.50;;
37273;SDS011;23161;51.250;5.554;2022-12-18T09:43:13;25.75;;;22.38;;
37273;SDS011;23161;51.250;5.554;2022-12-18T09:45:46;23.25;;;17.20;;
37273;SDS011;23161;51.250;5.554;2022-12-18T09:48:38;27.73;;;18.38;;
37273;SDS011;23161;51.250;5.554;2022-12-18T09:53:46;22.55;;;20.20;;
37273;SDS011;23161;51.250;5.554;2022-12-18T09:56:18;24.50;;;19.52;;
37273;SDS011;23161;51.250;5.554;2022-12-18T09:59:00;22.20;;;19.90;;
37273;SDS011;23161;51.250;5.554;2022-12-18T10:01:28;22.20;;;19.73;;
37273;SDS011;23161;51.250;5.554;2022-12-18T10:03:54;22.75;;;18.50;;
37273;SDS011;23161;51.250;5.554;2022-12-18T10:06:30;20.70;;;18.35;;
37273;SDS011;23161;51.250;5.554;2022-12-18T10:11:48;24.40;;;17.67;;
37273;SDS011;23161;51.250;5.554;2022-12-18T10:14:30;21.42;;;18.20;;
37273;SDS011;23161;51.250;5.554;2022-12-18T10:17:26;21.92;;;18.13;;
37273;SDS011;23161;51.250;5.554;2022-12-18T10:20:40;27.13;;;18.25;;
37273;SDS011;23161;51.250;5.554;2022-12-18T10:23:53;24.90;;;19.80;;
37273;SDS011;23161;51.250;5.554;2022-12-18T10:26:01;18.38;;;14.85;;
37273;SDS011;23161;51.250;5.554;2022-12-18T10:28:30;31.58;;;21.05;;
37273;SDS011;23161;51.250;5.554;2022-12-18T10:30:56;26.15;;;19.63;;
37273;SDS011;23161;51.250;5.554;2022-12-18T10:33:24;25.15;;;19.25;;
37273;SDS011;23161;51.250;5.554;2022-12-18T10:35:53;22.90;;;18.70;;
37273;SDS011;23161;51.250;5.554;2022-12-18T10:38:21;21.58;;;19.33;;
37273;SDS011;23161;51.250;5.554;2022-12-18T10:43:26;19.75;;;17.92;;
37273;SDS011;23161;51.250;5.554;2022-12-18T10:45:58;21.73;;;17.88;;
37273;SDS011;23161;51.250;5.554;2022-12-18T10:48:55;23.58;;;20.42;;
37273;SDS011;23161;51.250;5.554;2022-12-18T10:51:22;22.77;;;18.52;;
37273;SDS011;23161;51.250;5.554;2022-12-18T10:53:59;24.13;;;20.33;;
37273;SDS011;23161;51.250;5.554;2022-12-18T10:56:40;22.25;;;19.85;;
37273;SDS011;23161;51.250;5.554;2022-12-18T10:59:07;24.15;;;20.17;;
37273;SDS011;23161;51.250;5.554;2022-12-18T11:01:47;22.88;;;20.27;;
37273;SDS011;23161;51.250;5.554;2022-12-18T11:04:18;22.33;;;19.97;;
37273;SDS011;23161;51.250;5.554;2022-12-18T11:07:19;23.40;;;17.67;;
37273;SDS011;23161;51.250;5.554;2022-12-18T11:09:39;27.90;;;19.50;;
37273;SDS011;23161;51.250;5.554;2022-12-18T11:14:53;24.95;;;21.33;;
37273;SDS011;23161;51.250;5.554;2022-12-18T11:19:57;23.80;;;19.70;;
37273;SDS011;23161;51.250;5.554;2022-12-18T11:22:28;23.38;;;19.35;;
37273;SDS011;23161;51.250;5.554;2022-12-18T11:27:30;22.40;;;18.33;;
37273;SDS011;23161;51.250;5.554;2022-12-18T11:30:13;27.17;;;20.88;;
37273;SDS011;23161;51.250;5.554;2022-12-18T11:38:23;20.10;;;17.60;;
37273;SDS011;23161;51.250;5.554;2022-12-18T11:44:28;27.53;;;20.50;;
37273;SDS011;23161;51.250;5.554;2022-12-18T11:47:13;21.63;;;18.48;;
37273;SDS011;23161;51.250;5.554;2022-12-18T11:49:45;22.13;;;17.17;;
37273;SDS011;23161;51.250;5.554;2022-12-18T11:54:52;27.17;;;19.08;;
37273;SDS011;23161;51.250;5.554;2022-12-18T11:57:31;25.70;;;19.58;;
37273;SDS011;23161;51.250;5.554;2022-12-18T12:00:25;23.30;;;20.50;;
37273;SDS011;23161;51.250;5.554;2022-12-18T12:11:16;29.27;;;22.42;;
37273;SDS011;23161;51.250;5.554;2022-12-18T12:20:05;19.48;;;17.40;;
37273;SDS011;23161;51.250;5.554;2022-12-18T12:22:55;21.38;;;19.25;;
37273;SDS011;23161;51.250;5.554;2022-12-18T12:25:33;20.20;;;18.17;;
37273;SDS011;23161;51.250;5.554;2022-12-18T12:33:37;33.97;;;21.98;;
37273;SDS011;23161;51.250;5.554;2022-12-18T12:38:59;21.90;;;18.15;;
37273;SDS011;23161;51.250;5.554;2022-12-18T12:41:31;23.13;;;19.58;;
37273;SDS011;23161;51.250;5.554;2022-12-18T12:44:19;20.60;;;18.30;;
37273;SDS011;23161;51.250;5.554;2022-12-18T12:46:57;21.65;;;19.38;;
37273;SDS011;23161;51.250;5.554;2022-12-18T12:49:30;22.63;;;18.75;;
37273;SDS011;23161;51.250;5.554;2022-12-18T12:51:59;24.10;;;18.83;;
37273;SDS011;23161;51.250;5.554;2022-12-18T12:54:40;22.25;;;17.45;;
37273;SDS011;23161;51.250;5.554;2022-12-18T12:57:19;21.15;;;18.95;;
37273;SDS011;23161;51.250;5.554;2022-12-18T13:08:09;24.23;;;17.63;;
37273;SDS011;23161;51.250;5.554;2022-12-18T13:15:38;22.10;;;16.25;;
37273;SDS011;23161;51.250;5.554;2022-12-18T13:18:28;21.38;;;18.77;;
37273;SDS011;23161;51.250;5.554;2022-12-18T13:25:49;22.52;;;19.30;;
37273;SDS011;23161;51.250;5.554;2022-12-18T13:31:06;24.88;;;19.67;;
37273;SDS011;23161;51.250;5.554;2022-12-18T13:33:45;22.75;;;20.20;;
37273;SDS011;23161;51.250;5.554;2022-12-18T13:36:32;19.38;;;17.42;;
37273;SDS011;23161;51.250;5.554;2022-12-18T13:41:42;20.30;;;18.23;;
37273;SDS011;23161;51.250;5.554;2022-12-18T13:44:12;25.38;;;17.95;;
37273;SDS011;23161;51.250;5.554;2022-12-18T13:46:58;22.35;;;18.17;;
37273;SDS011;23161;51.250;5.554;2022-12-18T13:49:27;20.40;;;18.30;;
37273;SDS011;23161;51.250;5.554;2022-12-18T13:52:03;19.95;;;17.83;;
37273;SDS011;23161;51.250;5.554;2022-12-18T13:54:45;24.30;;;19.60;;
37273;SDS011;23161;51.250;5.554;2022-12-18T13:57:25;21.85;;;18.60;;
37273;SDS011;23161;51.250;5.554;2022-12-18T14:02:47;21.35;;;17.00;;
37273;SDS011;23161;51.250;5.554;2022-12-18T14:05:34;20.73;;;18.02;;
37273;SDS011;23161;51.250;5.554;2022-12-18T14:08:06;21.15;;;18.45;;
37273;SDS011;23161;51.250;5.554;2022-12-18T14:10:40;21.05;;;15.20;;
37273;SDS011;23161;51.250;5.554;2022-12-18T14:13:08;26.85;;;20.02;;
37273;SDS011;23161;51.250;5.554;2022-12-18T14:15:39;15.47;;;13.17;;
37273;SDS011;23161;51.250;5.554;2022-12-18T14:18:26;24.27;;;19.13;;
37273;SDS011;23161;51.250;5.554;2022-12-18T14:20:57;19.80;;;17.65;;
37273;SDS011;23161;51.250;5.554;2022-12-18T14:23:39;18.65;;;16.98;;
37273;SDS011;23161;51.250;5.554;2022-12-18T14:26:22;25.30;;;17.85;;
37273;SDS011;23161;51.250;5.554;2022-12-18T14:28:53;26.45;;;19.23;;
37273;SDS011;23161;51.250;5.554;2022-12-18T14:31:23;22.48;;;19.27;;
37273;SDS011;23161;51.250;5.554;2022-12-18T14:33:51;19.85;;;17.63;;
37273;SDS011;23161;51.250;5.554;2022-12-18T14:36:19;22.55;;;18.83;;
37273;SDS011;23161;51.250;5.554;2022-12-18T14:38:48;22.33;;;17.13;;
37273;SDS011;23161;51.250;5.554;2022-12-18T14:41:22;21.25;;;18.02;;
37273;SDS011;23161;51.250;5.554;2022-12-18T14:43:50;22.35;;;19.70;;
37273;SDS011;23161;51.250;5.554;2022-12-18T14:48:58;21.02;;;16.67;;
37273;SDS011;23161;51.250;5.554;2022-12-18T14:51:30;25.20;;;20.48;;
37273;SDS011;23161;51.250;5.554;2022-12-18T14:54:02;24.73;;;18.77;;
37273;SDS011;23161;51.250;5.554;2022-12-18T14:56:33;22.98;;;18.90;;
37273;SDS011;23161;51.250;5.554;2022-12-18T14:59:02;22.67;;;18.75;;
37273;SDS011;23161;51.250;5.554;2022-12-18T15:04:44;23.10;;;19.88;;
37273;SDS011;23161;51.250;5.554;2022-12-18T15:07:14;19.58;;;17.40;;
37273;SDS011;23161;51.250;5.554;2022-12-18T15:10:30;24.30;;;19.35;;
37273;SDS011;23161;51.250;5.554;2022-12-18T15:12:41;21.25;;;18.52;;
37273;SDS011;23161;51.250;5.554;2022-12-18T15:20:44;25.25;;;21.27;;
37273;SDS011;23161;51.250;5.554;2022-12-18T15:26:03;24.83;;;16.40;;
37273;SDS011;23161;51.250;5.554;2022-12-18T15:28:33;31.25;;;23.95;;
37273;SDS011;23161;51.250;5.554;2022-12-18T15:33:35;23.73;;;19.23;;
37273;SDS011;23161;51.250;5.554;2022-12-18T15:36:08;20.85;;;17.05;;
37273;SDS011;23161;51.250;5.554;2022-12-18T15:38:36;25.65;;;20.15;;
37273;SDS011;23161;51.250;5.554;2022-12-18T15:41:02;21.00;;;18.20;;
37273;SDS011;23161;51.250;5.554;2022-12-18T15:48:48;26.05;;;19.70;;
37273;SDS011;23161;51.250;5.554;2022-12-18T15:53:45;19.17;;;17.38;;
37273;SDS011;23161;51.250;5.554;2022-12-18T15:56:13;22.40;;;18.45;;
37273;SDS011;23161;51.250;5.554;2022-12-18T15:58:59;25.02;;;20.65;;
37273;SDS011;23161;51.250;5.554;2022-12-18T16:01:26;22.77;;;18.13;;
37273;SDS011;23161;51.250;5.554;2022-12-18T16:03:54;22.88;;;18.40;;
37273;SDS011;23161;51.250;5.554;2022-12-18T16:06:20;28.75;;;19.40;;
37273;SDS011;23161;51.250;5.554;2022-12-18T16:08:49;22.08;;;19.75;;
37273;SDS011;23161;51.250;5.554;2022-12-18T16:11:23;21.67;;;18.30;;
37273;SDS011;23161;51.250;5.554;2022-12-18T16:14:20;26.17;;;20.65;;
37273;SDS011;23161;51.250;5.554;2022-12-18T16:16:49;21.73;;;17.40;;
37273;SDS011;23161;51.250;5.554;2022-12-18T16:19:16;25.10;;;19.58;;
37273;SDS011;23161;51.250;5.554;2022-12-18T16:21:42;27.80;;;20.38;;
37273;SDS011;23161;51.250;5.554;2022-12-18T16:24:19;22.50;;;18.70;;
37273;SDS011;23161;51.250;5.554;2022-12-18T16:26:47;23.38;;;19.85;;
37273;SDS011;23161;51.250;5.554;2022-12-18T16:29:14;24.73;;;21.05;;
37273;SDS011;23161;51.250;5.554;2022-12-18T16:31:40;28.15;;;21.00;;
37273;SDS011;23161;51.250;5.554;2022-12-18T16:34:09;19.60;;;17.67;;
37273;SDS011;23161;51.250;5.554;2022-12-18T16:36:35;22.38;;;18.70;;
37273;SDS011;23161;51.250;5.554;2022-12-18T16:39:01;24.20;;;18.92;;
37273;SDS011;23161;51.250;5.554;2022-12-18T16:41:27;22.23;;;19.27;;
37273;SDS011;23161;51.250;5.554;2022-12-18T16:43:59;23.85;;;21.33;;
37273;SDS011;23161;51.250;5.554;2022-12-18T16:46:24;24.25;;;19.13;;
37273;SDS011;23161;51.250;5.554;2022-12-18T16:48:50;20.98;;;18.08;;
37273;SDS011;23161;51.250;5.554;2022-12-18T16:51:17;20.92;;;18.55;;
37273;SDS011;23161;51.250;5.554;2022-12-18T16:53:43;24.73;;;20.23;;
37273;SDS011;23161;51.250;5.554;2022-12-18T16:56:08;23.42;;;20.75;;
37273;SDS011;23161;51.250;5.554;2022-12-18T16:58:34;26.13;;;20.52;;